sensor_id;sensor_type;location;lat;lon;timestamp;P1;durP1;ratioP1;P2;durP2;ratioP2
55037;SDS011;40937;53.594;10.034;2023-12-22T00:00:06;23.65;;;5.75;;
55037;SDS011;40937;53.594;10.034;2023-12-22T00:02:34;24.08;;;6.10;;
55037;SDS011;40937;53.594;10.034;2023-12-22T00:05:02;23.02;;;5.70;;
55037;SDS011;40937;53.594;10.034;2023-12-22T00:07:29;24.85;;;5.78;;
55037;SDS011;40937;53.594;10.034;2023-12-22T00:09:56;26.48;;;5.60;;
55037;SDS011;40937;53.594;10.034;2023-12-22T00:12:25;18.77;;;5.22;;
55037;SDS011;40937;53.594;10.034;2023-12-22T00:14:52;24.92;;;6.25;;
55037;SDS011;40937;53.594;10.034;2023-12-22T00:17:19;30.40;;;6.70;;
55037;SDS011;40937;53.594;10.034;2023-12-22T00:19:46;25.70;;;5.72;;
55037;SDS011;40937;53.594;10.034;2023-12-22T00:22:14;26.30;;;5.95;;
55037;SDS011;40937;53.594;10.034;2023-12-22T00:24:41;37.65;;;5.85;;
55037;SDS011;40937;53.594;10.034;2023-12-22T00:27:08;24.50;;;5.55;;
55037;SDS011;40937;53.594;10.034;2023-12-22T00:29:36;26.70;;;5.88;;
55037;SDS011;40937;53.594;10.034;2023-12-22T00:32:04;30.58;;;6.55;;
55037;SDS011;40937;53.594;10.034;2023-12-22T00:34:32;26.38;;;6.65;;
55037;SDS011;40937;53.594;10.034;2023-12-22T00:36:59;40.20;;;7.10;;
55037;SDS011;40937;53.594;10.034;2023-12-22T00:39:27;25.95;;;5.68;;
55037;SDS011;40937;53.594;10.034;2023-12-22T00:41:54;26.70;;;5.32;;
55037;SDS011;40937;53.594;10.034;2023-12-22T00:44:21;30.27;;;6.43;;
55037;SDS011;40937;53.594;10.034;2023-12-22T00:46:50;22.70;;;5.15;;
55037;SDS011;40937;53.594;10.034;2023-12-22T00:49:17;24.58;;;5.75;;
55037;SDS011;40937;53.594;10.034;2023-12-22T00:51:44;23.42;;;5.72;;
55037;SDS011;40937;53.594;10.034;2023-12-22T00:54:12;28.80;;;5.43;;
55037;SDS011;40937;53.594;10.034;2023-12-22T00:56:39;31.13;;;5.82;;
55037;SDS011;40937;53.594;10.034;2023-12-22T00:59:06;23.25;;;7.25;;
55037;SDS011;40937;53.594;10.034;2023-12-22T01:01:33;26.10;;;6.57;;
55037;SDS011;40937;53.594;10.034;2023-12-22T01:04:02;32.85;;;6.15;;
55037;SDS011;40937;53.594;10.034;2023-12-22T01:06:29;23.95;;;6.30;;
55037;SDS011;40937;53.594;10.034;2023-12-22T01:08:56;30.52;;;6.95;;
55037;SDS011;40937;53.594;10.034;2023-12-22T01:11:24;31.77;;;7.82;;
55037;SDS011;40937;53.594;10.034;2023-12-22T01:13:51;28.50;;;6.07;;
55037;SDS011;40937;53.594;10.034;2023-12-22T01:16:18;29.20;;;6.38;;
55037;SDS011;40937;53.594;10.034;2023-12-22T01:18:47;33.70;;;5.53;;
55037;SDS011;40937;53.594;10.034;2023-12-22T01:21:16;22.33;;;5.60;;
55037;SDS011;40937;53.594;10.034;2023-12-22T01:23:43;16.67;;;4.72;;
55037;SDS011;40937;53.594;10.034;2023-12-22T01:26:10;20.75;;;4.40;;
55037;SDS011;40937;53.594;10.034;2023-12-22T01:28:38;19.15;;;4.10;;
55037;SDS011;40937;53.594;10.034;2023-12-22T01:31:05;19.58;;;3.63;;
55037;SDS011;40937;53.594;10.034;2023-12-22T01:33:32;11.93;;;3.50;;
55037;SDS011;40937;53.594;10.034;2023-12-22T01:35:59;13.75;;;3.85;;
55037;SDS011;40937;53.594;10.034;2023-12-22T01:38:28;11.50;;;3.28;;
55037;SDS011;40937;53.594;10.034;2023-12-22T01:40:55;12.23;;;3.03;;
55037;SDS011;40937;53.594;10.034;2023-12-22T01:43:22;8.05;;;2.25;;
55037;SDS011;40937;53.594;10.034;2023-12-22T01:45:50;5.50;;;1.73;;
55037;SDS011;40937;53.594;10.034;2023-12-22T01:48:22;6.13;;;1.90;;
55037;SDS011;40937;53.594;10.034;2023-12-22T01:50:49;6.60;;;2.08;;
55037;SDS011;40937;53.594;10.034;2023-12-22T01:53:18;6.78;;;1.88;;
55037;SDS011;40937;53.594;10.034;2023-12-22T01:55:48;7.38;;;1.63;;
55037;SDS011;40937;53.594;10.034;2023-12-22T01:58:17;3.78;;;1.50;;
55037;SDS011;40937;53.594;10.034;2023-12-22T02:00:45;3.85;;;1.48;;
55037;SDS011;40937;53.594;10.034;2023-12-22T02:03:13;6.00;;;1.70;;
55037;SDS011;40937;53.594;10.034;2023-12-22T02:05:41;10.82;;;2.22;;
55037;SDS011;40937;53.594;10.034;2023-12-22T02:08:09;5.75;;;1.73;;
55037;SDS011;40937;53.594;10.034;2023-12-22T02:10:37;4.78;;;1.70;;
55037;SDS011;40937;53.594;10.034;2023-12-22T02:13:05;8.73;;;1.58;;
55037;SDS011;40937;53.594;10.034;2023-12-22T02:15:33;5.30;;;1.70;;
55037;SDS011;40937;53.594;10.034;2023-12-22T02:18:02;4.40;;;1.75;;
55037;SDS011;40937;53.594;10.034;2023-12-22T02:20:33;9.05;;;2.10;;
55037;SDS011;40937;53.594;10.034;2023-12-22T02:23:02;6.47;;;2.13;;
55037;SDS011;40937;53.594;10.034;2023-12-22T02:25:29;5.85;;;2.05;;
55037;SDS011;40937;53.594;10.034;2023-12-22T02:27:57;5.10;;;2.00;;
55037;SDS011;40937;53.594;10.034;2023-12-22T02:30:31;10.98;;;3.47;;
55037;SDS011;40937;53.594;10.034;2023-12-22T02:33:01;9.90;;;2.40;;
55037;SDS011;40937;53.594;10.034;2023-12-22T02:35:32;8.93;;;2.67;;
55037;SDS011;40937;53.594;10.034;2023-12-22T02:38:04;10.20;;;2.92;;
55037;SDS011;40937;53.594;10.034;2023-12-22T02:40:32;14.48;;;2.78;;
55037;SDS011;40937;53.594;10.034;2023-12-22T02:43:03;10.55;;;2.67;;
55037;SDS011;40937;53.594;10.034;2023-12-22T02:45:32;15.90;;;3.03;;
55037;SDS011;40937;53.594;10.034;2023-12-22T02:48:00;11.60;;;2.10;;
55037;SDS011;40937;53.594;10.034;2023-12-22T02:50:27;15.10;;;3.15;;
55037;SDS011;40937;53.594;10.034;2023-12-22T02:52:54;11.35;;;2.72;;
55037;SDS011;40937;53.594;10.034;2023-12-22T02:55:23;10.07;;;2.38;;
55037;SDS011;40937;53.594;10.034;2023-12-22T02:57:50;13.23;;;2.45;;
55037;SDS011;40937;53.594;10.034;2023-12-22T03:00:17;14.95;;;2.67;;
55037;SDS011;40937;53.594;10.034;2023-12-22T03:02:44;11.05;;;2.65;;
55037;SDS011;40937;53.594;10.034;2023-12-22T03:05:12;12.93;;;2.63;;
55037;SDS011;40937;53.594;10.034;2023-12-22T03:07:39;7.72;;;1.90;;
55037;SDS011;40937;53.594;10.034;2023-12-22T03:10:06;4.32;;;1.17;;
55037;SDS011;40937;53.594;10.034;2023-12-22T03:12:35;8.00;;;1.60;;
55037;SDS011;40937;53.594;10.034;2023-12-22T03:15:02;7.57;;;1.65;;
55037;SDS011;40937;53.594;10.034;2023-12-22T03:17:30;3.35;;;1.38;;
55037;SDS011;40937;53.594;10.034;2023-12-22T03:19:57;4.78;;;2.08;;
55037;SDS011;40937;53.594;10.034;2023-12-22T03:22:24;4.47;;;1.27;;
55037;SDS011;40937;53.594;10.034;2023-12-22T03:24:52;4.13;;;1.10;;
55037;SDS011;40937;53.594;10.034;2023-12-22T03:27:19;8.30;;;1.67;;
55037;SDS011;40937;53.594;10.034;2023-12-22T03:29:47;8.88;;;1.98;;
55037;SDS011;40937;53.594;10.034;2023-12-22T03:32:14;6.22;;;1.50;;
55037;SDS011;40937;53.594;10.034;2023-12-22T03:34:42;2.05;;;0.80;;
55037;SDS011;40937;53.594;10.034;2023-12-22T03:37:09;3.40;;;0.82;;
55037;SDS011;40937;53.594;10.034;2023-12-22T03:39:36;4.15;;;1.25;;
55037;SDS011;40937;53.594;10.034;2023-12-22T03:42:03;3.42;;;0.98;;
55037;SDS011;40937;53.594;10.034;2023-12-22T03:44:31;7.22;;;1.40;;
55037;SDS011;40937;53.594;10.034;2023-12-22T03:46:59;7.00;;;1.50;;
55037;SDS011;40937;53.594;10.034;2023-12-22T03:49:26;10.70;;;1.35;;
55037;SDS011;40937;53.594;10.034;2023-12-22T03:51:54;5.03;;;1.70;;
55037;SDS011;40937;53.594;10.034;2023-12-22T03:54:21;4.68;;;1.83;;
55037;SDS011;40937;53.594;10.034;2023-12-22T03:56:48;6.60;;;1.35;;
55037;SDS011;40937;53.594;10.034;2023-12-22T03:59:15;11.48;;;2.03;;
55037;SDS011;40937;53.594;10.034;2023-12-22T04:01:44;13.05;;;2.08;;
55037;SDS011;40937;53.594;10.034;2023-12-22T04:04:12;14.40;;;2.10;;
55037;SDS011;40937;53.594;10.034;2023-12-22T04:06:40;12.07;;;1.95;;
55037;SDS011;40937;53.594;10.034;2023-12-22T04:09:07;11.52;;;3.05;;
55037;SDS011;40937;53.594;10.034;2023-12-22T04:11:34;11.23;;;3.42;;
55037;SDS011;40937;53.594;10.034;2023-12-22T04:14:02;11.80;;;2.75;;
55037;SDS011;40937;53.594;10.034;2023-12-22T04:16:32;17.30;;;3.00;;
55037;SDS011;40937;53.594;10.034;2023-12-22T04:19:00;12.60;;;2.72;;
55037;SDS011;40937;53.594;10.034;2023-12-22T04:21:28;9.48;;;2.25;;
55037;SDS011;40937;53.594;10.034;2023-12-22T04:23:55;22.30;;;3.13;;
55037;SDS011;40937;53.594;10.034;2023-12-22T04:26:22;15.57;;;2.78;;
55037;SDS011;40937;53.594;10.034;2023-12-22T04:28:50;17.27;;;3.00;;
55037;SDS011;40937;53.594;10.034;2023-12-22T04:31:17;13.82;;;2.42;;
55037;SDS011;40937;53.594;10.034;2023-12-22T04:33:44;24.98;;;4.00;;
55037;SDS011;40937;53.594;10.034;2023-12-22T04:36:11;14.32;;;3.20;;
55037;SDS011;40937;53.594;10.034;2023-12-22T04:38:40;18.00;;;3.40;;
55037;SDS011;40937;53.594;10.034;2023-12-22T04:41:07;14.05;;;3.38;;
55037;SDS011;40937;53.594;10.034;2023-12-22T04:43:35;15.32;;;3.17;;
55037;SDS011;40937;53.594;10.034;2023-12-22T04:46:02;19.35;;;3.42;;
55037;SDS011;40937;53.594;10.034;2023-12-22T04:48:29;10.77;;;2.92;;
55037;SDS011;40937;53.594;10.034;2023-12-22T04:50:58;12.75;;;2.75;;
55037;SDS011;40937;53.594;10.034;2023-12-22T04:53:25;10.95;;;2.83;;
55037;SDS011;40937;53.594;10.034;2023-12-22T04:55:54;13.50;;;3.40;;
55037;SDS011;40937;53.594;10.034;2023-12-22T04:58:21;17.75;;;3.08;;
55037;SDS011;40937;53.594;10.034;2023-12-22T05:00:48;16.27;;;4.07;;
55037;SDS011;40937;53.594;10.034;2023-12-22T05:03:16;14.10;;;2.78;;
55037;SDS011;40937;53.594;10.034;2023-12-22T05:05:43;20.80;;;3.17;;
55037;SDS011;40937;53.594;10.034;2023-12-22T05:08:10;10.85;;;2.70;;
55037;SDS011;40937;53.594;10.034;2023-12-22T05:10:37;14.82;;;3.00;;
55037;SDS011;40937;53.594;10.034;2023-12-22T05:13:07;11.88;;;3.00;;
55037;SDS011;40937;53.594;10.034;2023-12-22T05:15:34;15.57;;;4.10;;
55037;SDS011;40937;53.594;10.034;2023-12-22T05:18:01;11.18;;;3.50;;
55037;SDS011;40937;53.594;10.034;2023-12-22T05:20:28;13.98;;;2.88;;
55037;SDS011;40937;53.594;10.034;2023-12-22T05:22:56;12.45;;;2.60;;
55037;SDS011;40937;53.594;10.034;2023-12-22T05:25:24;15.32;;;2.65;;
55037;SDS011;40937;53.594;10.034;2023-12-22T05:27:51;21.52;;;2.97;;
55037;SDS011;40937;53.594;10.034;2023-12-22T05:30:20;11.45;;;2.67;;
55037;SDS011;40937;53.594;10.034;2023-12-22T05:32:47;13.02;;;3.15;;
55037;SDS011;40937;53.594;10.034;2023-12-22T05:35:14;12.68;;;2.67;;
55037;SDS011;40937;53.594;10.034;2023-12-22T05:37:41;9.95;;;2.47;;
55037;SDS011;40937;53.594;10.034;2023-12-22T05:40:09;13.95;;;3.90;;
55037;SDS011;40937;53.594;10.034;2023-12-22T05:42:37;13.07;;;2.63;;
55037;SDS011;40937;53.594;10.034;2023-12-22T05:45:05;14.25;;;3.00;;
55037;SDS011;40937;53.594;10.034;2023-12-22T05:47:34;12.20;;;2.65;;
55037;SDS011;40937;53.594;10.034;2023-12-22T05:50:02;12.55;;;3.00;;
55037;SDS011;40937;53.594;10.034;2023-12-22T05:52:29;7.55;;;2.25;;
55037;SDS011;40937;53.594;10.034;2023-12-22T05:54:56;9.82;;;2.45;;
55037;SDS011;40937;53.594;10.034;2023-12-22T05:57:24;17.48;;;2.97;;
55037;SDS011;40937;53.594;10.034;2023-12-22T05:59:52;8.13;;;2.25;;
55037;SDS011;40937;53.594;10.034;2023-12-22T06:02:19;6.93;;;2.38;;
55037;SDS011;40937;53.594;10.034;2023-12-22T06:04:48;12.88;;;2.80;;
55037;SDS011;40937;53.594;10.034;2023-12-22T06:07:16;11.05;;;2.60;;
55037;SDS011;40937;53.594;10.034;2023-12-22T06:09:45;9.27;;;1.83;;
55037;SDS011;40937;53.594;10.034;2023-12-22T06:12:12;9.23;;;1.95;;
55037;SDS011;40937;53.594;10.034;2023-12-22T06:14:39;8.93;;;2.30;;
55037;SDS011;40937;53.594;10.034;2023-12-22T06:17:06;12.20;;;2.53;;
55037;SDS011;40937;53.594;10.034;2023-12-22T06:19:35;5.13;;;2.05;;
55037;SDS011;40937;53.594;10.034;2023-12-22T06:22:03;9.88;;;1.73;;
55037;SDS011;40937;53.594;10.034;2023-12-22T06:24:31;7.03;;;2.00;;
55037;SDS011;40937;53.594;10.034;2023-12-22T06:26:58;12.18;;;2.60;;
55037;SDS011;40937;53.594;10.034;2023-12-22T06:29:25;10.98;;;2.35;;
55037;SDS011;40937;53.594;10.034;2023-12-22T06:31:52;12.90;;;2.78;;
55037;SDS011;40937;53.594;10.034;2023-12-22T06:34:19;12.45;;;2.67;;
55037;SDS011;40937;53.594;10.034;2023-12-22T06:36:47;10.00;;;2.63;;
55037;SDS011;40937;53.594;10.034;2023-12-22T06:39:16;27.23;;;3.38;;
55037;SDS011;40937;53.594;10.034;2023-12-22T06:41:45;11.32;;;3.10;;
55037;SDS011;40937;53.594;10.034;2023-12-22T06:44:12;17.52;;;3.58;;
55037;SDS011;40937;53.594;10.034;2023-12-22T06:46:40;14.98;;;3.50;;
55037;SDS011;40937;53.594;10.034;2023-12-22T06:49:07;23.95;;;4.65;;
55037;SDS011;40937;53.594;10.034;2023-12-22T06:51:34;19.92;;;4.78;;
55037;SDS011;40937;53.594;10.034;2023-12-22T06:54:02;19.75;;;3.20;;
55037;SDS011;40937;53.594;10.034;2023-12-22T06:56:32;19.27;;;3.80;;
55037;SDS011;40937;53.594;10.034;2023-12-22T06:59:00;23.88;;;4.32;;
55037;SDS011;40937;53.594;10.034;2023-12-22T07:01:28;21.23;;;4.22;;
55037;SDS011;40937;53.594;10.034;2023-12-22T07:03:57;20.27;;;3.78;;
55037;SDS011;40937;53.594;10.034;2023-12-22T07:06:26;17.45;;;4.18;;
55037;SDS011;40937;53.594;10.034;2023-12-22T07:08:57;23.52;;;4.65;;
55037;SDS011;40937;53.594;10.034;2023-12-22T07:11:45;24.13;;;5.85;;
55037;SDS011;40937;53.594;10.034;2023-12-22T07:14:14;20.55;;;4.85;;
55037;SDS011;40937;53.594;10.034;2023-12-22T07:16:42;42.08;;;5.55;;
55037;SDS011;40937;53.594;10.034;2023-12-22T07:19:09;25.80;;;5.57;;
55037;SDS011;40937;53.594;10.034;2023-12-22T07:21:38;26.30;;;5.63;;
55037;SDS011;40937;53.594;10.034;2023-12-22T07:24:06;30.77;;;5.78;;
55037;SDS011;40937;53.594;10.034;2023-12-22T07:26:33;25.50;;;5.20;;
55037;SDS011;40937;53.594;10.034;2023-12-22T07:29:02;36.97;;;6.78;;
55037;SDS011;40937;53.594;10.034;2023-12-22T07:31:29;19.70;;;5.35;;
55037;SDS011;40937;53.594;10.034;2023-12-22T07:33:56;25.17;;;4.70;;
55037;SDS011;40937;53.594;10.034;2023-12-22T07:36:23;25.65;;;5.97;;
55037;SDS011;40937;53.594;10.034;2023-12-22T07:38:50;20.48;;;5.43;;
55037;SDS011;40937;53.594;10.034;2023-12-22T07:41:18;36.92;;;5.93;;
55037;SDS011;40937;53.594;10.034;2023-12-22T07:43:45;31.63;;;5.72;;
55037;SDS011;40937;53.594;10.034;2023-12-22T07:46:17;27.83;;;6.45;;
55037;SDS011;40937;53.594;10.034;2023-12-22T07:48:45;30.20;;;6.50;;
55037;SDS011;40937;53.594;10.034;2023-12-22T07:51:12;22.95;;;4.82;;
55037;SDS011;40937;53.594;10.034;2023-12-22T07:53:39;23.15;;;4.47;;
55037;SDS011;40937;53.594;10.034;2023-12-22T07:56:06;23.70;;;5.07;;
55037;SDS011;40937;53.594;10.034;2023-12-22T07:58:36;26.33;;;6.65;;
55037;SDS011;40937;53.594;10.034;2023-12-22T08:01:03;25.10;;;6.55;;
55037;SDS011;40937;53.594;10.034;2023-12-22T08:03:33;20.52;;;5.40;;
55037;SDS011;40937;53.594;10.034;2023-12-22T08:06:00;17.30;;;4.68;;
55037;SDS011;40937;53.594;10.034;2023-12-22T08:08:28;30.02;;;5.10;;
55037;SDS011;40937;53.594;10.034;2023-12-22T08:11:03;16.48;;;4.28;;
55037;SDS011;40937;53.594;10.034;2023-12-22T08:13:30;20.70;;;4.10;;
55037;SDS011;40937;53.594;10.034;2023-12-22T08:15:57;13.82;;;3.53;;
55037;SDS011;40937;53.594;10.034;2023-12-22T08:18:24;10.52;;;2.72;;
55037;SDS011;40937;53.594;10.034;2023-12-22T08:20:52;8.98;;;2.70;;
55037;SDS011;40937;53.594;10.034;2023-12-22T08:23:19;13.35;;;3.05;;
55037;SDS011;40937;53.594;10.034;2023-12-22T08:25:47;12.55;;;2.97;;
55037;SDS011;40937;53.594;10.034;2023-12-22T08:28:16;21.90;;;3.60;;
55037;SDS011;40937;53.594;10.034;2023-12-22T08:30:43;14.43;;;2.95;;
55037;SDS011;40937;53.594;10.034;2023-12-22T08:33:10;14.00;;;3.05;;
55037;SDS011;40937;53.594;10.034;2023-12-22T08:35:38;17.58;;;3.95;;
55037;SDS011;40937;53.594;10.034;2023-12-22T08:38:06;15.35;;;3.72;;
55037;SDS011;40937;53.594;10.034;2023-12-22T08:40:33;14.13;;;3.17;;
55037;SDS011;40937;53.594;10.034;2023-12-22T08:43:01;19.00;;;4.15;;
55037;SDS011;40937;53.594;10.034;2023-12-22T08:45:29;20.77;;;4.30;;
55037;SDS011;40937;53.594;10.034;2023-12-22T08:47:57;17.08;;;4.32;;
55037;SDS011;40937;53.594;10.034;2023-12-22T08:50:24;22.23;;;3.97;;
55037;SDS011;40937;53.594;10.034;2023-12-22T08:52:52;20.67;;;4.25;;
55037;SDS011;40937;53.594;10.034;2023-12-22T08:55:19;21.30;;;4.28;;
55037;SDS011;40937;53.594;10.034;2023-12-22T08:57:46;12.85;;;3.40;;
55037;SDS011;40937;53.594;10.034;2023-12-22T09:00:13;19.02;;;3.75;;
55037;SDS011;40937;53.594;10.034;2023-12-22T09:02:42;13.52;;;3.53;;
55037;SDS011;40937;53.594;10.034;2023-12-22T09:05:10;11.43;;;3.17;;
55037;SDS011;40937;53.594;10.034;2023-12-22T09:07:37;15.52;;;3.50;;
55037;SDS011;40937;53.594;10.034;2023-12-22T09:10:05;9.00;;;1.75;;
55037;SDS011;40937;53.594;10.034;2023-12-22T09:12:32;10.02;;;2.40;;
55037;SDS011;40937;53.594;10.034;2023-12-22T09:15:00;13.55;;;3.22;;
55037;SDS011;40937;53.594;10.034;2023-12-22T09:17:27;12.95;;;3.67;;
55037;SDS011;40937;53.594;10.034;2023-12-22T09:19:56;8.70;;;2.25;;
55037;SDS011;40937;53.594;10.034;2023-12-22T09:22:23;7.85;;;2.10;;
55037;SDS011;40937;53.594;10.034;2023-12-22T09:24:51;10.77;;;2.53;;
55037;SDS011;40937;53.594;10.034;2023-12-22T09:27:18;12.70;;;2.95;;
55037;SDS011;40937;53.594;10.034;2023-12-22T09:29:45;10.90;;;2.75;;
55037;SDS011;40937;53.594;10.034;2023-12-22T09:32:13;15.90;;;3.15;;
55037;SDS011;40937;53.594;10.034;2023-12-22T09:34:40;12.00;;;2.60;;
55037;SDS011;40937;53.594;10.034;2023-12-22T09:37:09;18.15;;;3.28;;
55037;SDS011;40937;53.594;10.034;2023-12-22T09:39:36;14.32;;;4.03;;
55037;SDS011;40937;53.594;10.034;2023-12-22T09:42:03;14.27;;;3.30;;
55037;SDS011;40937;53.594;10.034;2023-12-22T09:44:32;10.07;;;3.78;;
55037;SDS011;40937;53.594;10.034;2023-12-22T09:47:00;7.50;;;3.08;;
55037;SDS011;40937;53.594;10.034;2023-12-22T09:49:31;12.35;;;2.83;;
55037;SDS011;40937;53.594;10.034;2023-12-22T09:51:59;12.30;;;3.38;;
55037;SDS011;40937;53.594;10.034;2023-12-22T09:54:30;12.60;;;3.53;;
55037;SDS011;40937;53.594;10.034;2023-12-22T09:56:57;16.33;;;3.47;;
55037;SDS011;40937;53.594;10.034;2023-12-22T09:59:26;18.30;;;3.17;;
55037;SDS011;40937;53.594;10.034;2023-12-22T10:01:55;17.20;;;3.22;;
55037;SDS011;40937;53.594;10.034;2023-12-22T10:04:23;20.70;;;4.05;;
55037;SDS011;40937;53.594;10.034;2023-12-22T10:06:50;18.10;;;4.32;;
55037;SDS011;40937;53.594;10.034;2023-12-22T10:09:18;14.02;;;3.25;;
55037;SDS011;40937;53.594;10.034;2023-12-22T10:11:47;19.80;;;4.40;;
55037;SDS011;40937;53.594;10.034;2023-12-22T10:14:19;16.23;;;3.17;;
55037;SDS011;40937;53.594;10.034;2023-12-22T10:16:48;14.82;;;3.70;;
55037;SDS011;40937;53.594;10.034;2023-12-22T10:19:16;14.88;;;3.45;;
55037;SDS011;40937;53.594;10.034;2023-12-22T10:21:44;12.27;;;3.83;;
55037;SDS011;40937;53.594;10.034;2023-12-22T10:27:15;10.55;;;3.15;;
55037;SDS011;40937;53.594;10.034;2023-12-22T10:29:48;15.77;;;4.00;;
55037;SDS011;40937;53.594;10.034;2023-12-22T10:32:16;20.17;;;4.68;;
55037;SDS011;40937;53.594;10.034;2023-12-22T10:34:43;19.00;;;3.83;;
55037;SDS011;40937;53.594;10.034;2023-12-22T10:37:10;16.75;;;3.47;;
55037;SDS011;40937;53.594;10.034;2023-12-22T10:39:39;21.00;;;4.60;;
55037;SDS011;40937;53.594;10.034;2023-12-22T10:42:06;20.98;;;3.78;;
55037;SDS011;40937;53.594;10.034;2023-12-22T10:44:35;18.90;;;4.30;;
55037;SDS011;40937;53.594;10.034;2023-12-22T10:49:34;21.05;;;4.45;;
55037;SDS011;40937;53.594;10.034;2023-12-22T10:52:03;18.00;;;3.80;;
55037;SDS011;40937;53.594;10.034;2023-12-22T10:54:31;20.98;;;4.15;;
55037;SDS011;40937;53.594;10.034;2023-12-22T10:56:58;20.50;;;4.07;;
55037;SDS011;40937;53.594;10.034;2023-12-22T10:59:27;20.88;;;5.10;;
55037;SDS011;40937;53.594;10.034;2023-12-22T11:01:58;14.88;;;3.40;;
55037;SDS011;40937;53.594;10.034;2023-12-22T11:04:29;14.60;;;3.38;;
55037;SDS011;40937;53.594;10.034;2023-12-22T11:06:59;14.90;;;3.22;;
55037;SDS011;40937;53.594;10.034;2023-12-22T11:09:31;13.45;;;3.92;;
55037;SDS011;40937;53.594;10.034;2023-12-22T11:11:58;12.77;;;2.60;;
55037;SDS011;40937;53.594;10.034;2023-12-22T11:14:28;14.57;;;3.88;;
55037;SDS011;40937;53.594;10.034;2023-12-22T11:16:59;17.23;;;3.40;;
55037;SDS011;40937;53.594;10.034;2023-12-22T11:19:27;19.50;;;4.53;;
55037;SDS011;40937;53.594;10.034;2023-12-22T11:21:57;17.30;;;3.10;;
55037;SDS011;40937;53.594;10.034;2023-12-22T11:24:25;15.00;;;3.85;;
55037;SDS011;40937;53.594;10.034;2023-12-22T11:26:55;17.02;;;4.57;;
55037;SDS011;40937;53.594;10.034;2023-12-22T11:29:26;8.57;;;2.70;;
55037;SDS011;40937;53.594;10.034;2023-12-22T11:31:54;14.02;;;3.17;;
55037;SDS011;40937;53.594;10.034;2023-12-22T11:34:24;17.05;;;3.33;;
55037;SDS011;40937;53.594;10.034;2023-12-22T11:36:54;11.77;;;3.17;;
55037;SDS011;40937;53.594;10.034;2023-12-22T11:39:23;16.42;;;2.90;;
55037;SDS011;40937;53.594;10.034;2023-12-22T11:41:51;14.27;;;3.30;;
55037;SDS011;40937;53.594;10.034;2023-12-22T11:44:20;17.20;;;3.40;;
55037;SDS011;40937;53.594;10.034;2023-12-22T11:46:48;17.08;;;3.47;;
55037;SDS011;40937;53.594;10.034;2023-12-22T11:49:15;9.32;;;2.67;;
55037;SDS011;40937;53.594;10.034;2023-12-22T11:51:44;16.77;;;3.40;;
55037;SDS011;40937;53.594;10.034;2023-12-22T11:59:56;12.55;;;3.08;;
55037;SDS011;40937;53.594;10.034;2023-12-22T12:02:23;13.63;;;3.13;;
55037;SDS011;40937;53.594;10.034;2023-12-22T12:04:51;16.25;;;3.50;;
55037;SDS011;40937;53.594;10.034;2023-12-22T12:07:38;18.98;;;3.95;;
55037;SDS011;40937;53.594;10.034;2023-12-22T12:10:07;15.10;;;3.00;;
55037;SDS011;40937;53.594;10.034;2023-12-22T12:12:35;14.55;;;3.88;;
55037;SDS011;40937;53.594;10.034;2023-12-22T12:15:06;17.20;;;3.72;;
55037;SDS011;40937;53.594;10.034;2023-12-22T12:17:38;18.13;;;3.67;;
55037;SDS011;40937;53.594;10.034;2023-12-22T12:20:06;13.93;;;3.65;;
55037;SDS011;40937;53.594;10.034;2023-12-22T12:22:35;14.32;;;3.13;;
55037;SDS011;40937;53.594;10.034;2023-12-22T12:25:09;14.07;;;3.42;;
55037;SDS011;40937;53.594;10.034;2023-12-22T12:27:37;17.42;;;3.65;;
55037;SDS011;40937;53.594;10.034;2023-12-22T12:30:12;13.50;;;3.28;;
55037;SDS011;40937;53.594;10.034;2023-12-22T12:32:41;16.88;;;4.35;;
55037;SDS011;40937;53.594;10.034;2023-12-22T12:35:10;15.25;;;4.18;;
55037;SDS011;40937;53.594;10.034;2023-12-22T12:37:38;17.42;;;4.13;;
55037;SDS011;40937;53.594;10.034;2023-12-22T12:40:07;17.77;;;3.95;;
55037;SDS011;40937;53.594;10.034;2023-12-22T12:42:37;14.88;;;3.58;;
55037;SDS011;40937;53.594;10.034;2023-12-22T12:45:05;15.73;;;4.35;;
55037;SDS011;40937;53.594;10.034;2023-12-22T12:47:34;17.13;;;4.10;;
55037;SDS011;40937;53.594;10.034;2023-12-22T12:50:01;18.58;;;3.75;;
55037;SDS011;40937;53.594;10.034;2023-12-22T12:52:29;19.80;;;3.30;;
55037;SDS011;40937;53.594;10.034;2023-12-22T12:54:57;18.17;;;4.45;;
55037;SDS011;40937;53.594;10.034;2023-12-22T12:57:27;19.40;;;4.30;;
55037;SDS011;40937;53.594;10.034;2023-12-22T12:59:55;15.80;;;3.40;;
55037;SDS011;40937;53.594;10.034;2023-12-22T13:02:22;10.93;;;3.15;;
55037;SDS011;40937;53.594;10.034;2023-12-22T13:04:49;14.63;;;3.85;;
55037;SDS011;40937;53.594;10.034;2023-12-22T13:07:26;18.40;;;3.30;;
55037;SDS011;40937;53.594;10.034;2023-12-22T13:09:54;17.13;;;3.10;;
55037;SDS011;40937;53.594;10.034;2023-12-22T13:12:24;16.90;;;3.80;;
55037;SDS011;40937;53.594;10.034;2023-12-22T13:14:54;18.15;;;4.25;;
55037;SDS011;40937;53.594;10.034;2023-12-22T13:17:21;13.27;;;3.67;;
55037;SDS011;40937;53.594;10.034;2023-12-22T13:19:49;18.95;;;4.20;;
55037;SDS011;40937;53.594;10.034;2023-12-22T13:22:16;18.83;;;3.92;;
55037;SDS011;40937;53.594;10.034;2023-12-22T13:24:54;16.83;;;3.63;;
55037;SDS011;40937;53.594;10.034;2023-12-22T13:27:22;22.55;;;5.40;;
55037;SDS011;40937;53.594;10.034;2023-12-22T13:29:50;20.45;;;3.97;;
55037;SDS011;40937;53.594;10.034;2023-12-22T13:32:20;23.63;;;3.65;;
55037;SDS011;40937;53.594;10.034;2023-12-22T13:34:49;27.52;;;5.30;;
55037;SDS011;40937;53.594;10.034;2023-12-22T13:37:17;21.13;;;4.53;;
55037;SDS011;40937;53.594;10.034;2023-12-22T13:39:44;22.88;;;4.65;;
55037;SDS011;40937;53.594;10.034;2023-12-22T13:42:15;21.02;;;4.78;;
55037;SDS011;40937;53.594;10.034;2023-12-22T13:44:43;15.23;;;3.88;;
55037;SDS011;40937;53.594;10.034;2023-12-22T13:47:14;18.42;;;3.40;;
55037;SDS011;40937;53.594;10.034;2023-12-22T13:49:42;22.42;;;3.90;;
55037;SDS011;40937;53.594;10.034;2023-12-22T13:52:23;23.05;;;3.92;;
55037;SDS011;40937;53.594;10.034;2023-12-22T13:54:52;18.60;;;3.80;;
55037;SDS011;40937;53.594;10.034;2023-12-22T13:57:21;16.60;;;3.53;;
55037;SDS011;40937;53.594;10.034;2023-12-22T13:59:49;16.65;;;3.72;;
55037;SDS011;40937;53.594;10.034;2023-12-22T14:02:20;20.13;;;3.22;;
55037;SDS011;40937;53.594;10.034;2023-12-22T14:04:49;27.98;;;4.75;;
55037;SDS011;40937;53.594;10.034;2023-12-22T14:07:16;18.15;;;3.42;;
55037;SDS011;40937;53.594;10.034;2023-12-22T14:09:44;15.15;;;2.92;;
55037;SDS011;40937;53.594;10.034;2023-12-22T14:12:11;22.13;;;4.55;;
55037;SDS011;40937;53.594;10.034;2023-12-22T14:14:38;13.00;;;3.88;;
55037;SDS011;40937;53.594;10.034;2023-12-22T14:17:05;14.52;;;3.30;;
55037;SDS011;40937;53.594;10.034;2023-12-22T14:19:34;25.73;;;3.53;;
55037;SDS011;40937;53.594;10.034;2023-12-22T14:22:01;11.90;;;3.38;;
55037;SDS011;40937;53.594;10.034;2023-12-22T14:24:28;20.95;;;5.68;;
55037;SDS011;40937;53.594;10.034;2023-12-22T14:26:56;17.17;;;4.28;;
55037;SDS011;40937;53.594;10.034;2023-12-22T14:29:23;13.98;;;3.88;;
55037;SDS011;40937;53.594;10.034;2023-12-22T14:31:50;11.98;;;2.65;;
55037;SDS011;40937;53.594;10.034;2023-12-22T14:34:18;9.73;;;2.88;;
55037;SDS011;40937;53.594;10.034;2023-12-22T14:36:48;15.60;;;3.38;;
55037;SDS011;40937;53.594;10.034;2023-12-22T14:39:15;12.02;;;3.00;;